Time;durP1;ratioP1;P1;durP2;ratioP2;P2;SDS_P1;SDS_P2;PMS_P1;PMS_P2;Temp;Humidity;BMP_temperature;BMP_pressure;BME280_temperature;BME280_humidity;BME280_pressure;Samples;Min_cycle;Max_cycle;Signal;HPM_P1;HPM_P2
2021/10/24 00:00:12;;;;;;;;;7.25;7.25;;;;;21.10;38.93;101933.41;5018981;28;45550;-47
2021/10/24 00:02:38;;;;;;;;;7.00;7.00;;;;;21.09;39.12;101931.69;5017149;28;45651;-52
2021/10/24 00:05:06;;;;;;;;;8.00;8.00;;;;;21.08;38.87;101930.81;5018343;28;45313;-54
2021/10/24 00:07:31;;;;;;;;;9.00;8.00;;;;;21.08;39.30;101927.34;5018590;28;45388;-51
2021/10/24 00:09:58;;;;;;;;;8.75;8.75;;;;;21.06;39.16;101916.84;5017451;28;45682;-57
2021/10/24 00:12:23;;;;;;;;;9.00;8.00;;;;;21.07;39.24;101921.19;5018280;28;45483;-57
2021/10/24 00:14:48;;;;;;;;;9.50;8.75;;;;;21.05;38.93;101917.78;5018079;28;49176;-52
2021/10/24 00:17:14;;;;;;;;;8.75;8.75;;;;;21.06;39.04;101913.34;5017480;28;45851;-58
2021/10/24 00:19:39;;;;;;;;;9.50;8.75;;;;;21.06;38.86;101923.91;5018661;28;45585;-52
2021/10/24 00:22:05;;;;;;;;;10.00;9.00;;;;;21.05;39.25;101911.63;5018145;28;45647;-49
2021/10/24 00:24:31;;;;;;;;;10.75;9.25;;;;;21.06;39.21;101916.00;5018072;28;45286;-55
2021/10/24 00:26:56;;;;;;;;;12.00;9.00;;;;;21.05;39.10;101911.63;5018389;28;45383;-60
2021/10/24 00:29:22;;;;;;;;;9.00;9.00;;;;;21.04;39.35;101916.06;5018514;28;45236;-54
2021/10/24 00:31:47;;;;;;;;;8.50;8.50;;;;;21.03;39.23;101906.44;5018343;28;45321;-48
2021/10/24 00:34:13;;;;;;;;;11.00;10.00;;;;;21.04;38.93;101913.44;5018417;28;45500;-53
2021/10/24 00:36:38;;;;;;;;;9.00;9.00;;;;;21.00;39.28;101902.13;5018167;28;45230;-52
2021/10/24 00:39:04;;;;;;;;;9.25;7.00;;;;;21.03;39.07;101906.44;5018251;28;45499;-53
2021/10/24 00:41:31;;;;;;;;;9.50;8.50;;;;;21.04;38.98;101910.78;5017703;28;45292;-58
2021/10/24 00:43:57;;;;;;;;;8.75;8.25;;;;;21.00;39.04;101902.13;5017454;28;45474;-53
2021/10/24 00:46:23;;;;;;;;;9.00;9.00;;;;;20.99;38.81;101908.34;5018071;28;45336;-50
2021/10/24 00:48:48;;;;;;;;;7.75;7.75;;;;;20.97;39.32;101902.28;5018129;28;45436;-52
2021/10/24 00:51:14;;;;;;;;;9.00;8.00;;;;;21.00;38.88;101898.66;5018222;28;46427;-52
2021/10/24 00:53:40;;;;;;;;;6.00;6.00;;;;;21.01;39.41;101906.47;5017803;28;45356;-56
2021/10/24 00:56:08;;;;;;;;;9.75;8.50;;;;;21.01;38.97;101905.63;5017909;28;45435;-56
2021/10/24 00:58:34;;;;;;;;;11.75;8.00;;;;;20.94;39.09;101886.56;5018103;28;45325;-60
2021/10/24 01:00:59;;;;;;;;;10.25;9.25;;;;;21.01;39.34;101906.47;5017624;28;45459;-61
2021/10/24 01:03:25;;;;;;;;;6.50;6.00;;;;;20.96;38.94;101891.78;5017597;28;45313;-61
2021/10/24 01:05:50;;;;;;;;;8.00;7.25;;;;;20.99;39.15;101897.81;5017880;28;48873;-62
2021/10/24 01:08:16;;;;;;;;;8.00;8.00;;;;;20.98;38.91;101896.09;5018537;28;45577;-58
2021/10/24 01:10:41;;;;;;;;;7.50;7.50;;;;;20.99;39.11;101896.94;5017767;28;46450;-55
2021/10/24 01:13:07;;;;;;;;;7.75;7.00;;;;;20.99;39.31;101896.94;5016753;28;45456;-51
2021/10/24 01:15:32;;;;;;;;;9.50;8.25;;;;;20.96;39.22;101889.13;5017722;28;45367;-56
2021/10/24 01:17:58;;;;;;;;;10.50;8.50;;;;;20.97;39.03;101894.38;5017781;28;45319;-56
2021/10/24 01:20:28;;;;;;;;;8.00;7.25;;;;;20.98;38.86;101895.22;5017231;28;46498;-54
2021/10/24 01:22:53;;;;;;;;;8.25;7.75;;;;;20.96;39.32;101884.75;5017292;28;45407;-63
2021/10/24 01:25:19;;;;;;;;;7.00;7.00;;;;;20.95;39.31;101890.94;5017824;28;45282;-55
2021/10/24 01:27:46;;;;;;;;;7.00;7.00;;;;;20.95;39.19;101880.38;5016353;28;45651;-55
2021/10/24 01:30:12;;;;;;;;;8.00;7.25;;;;;20.95;38.97;101879.50;5015919;28;47739;-53
2021/10/24 01:32:38;;;;;;;;;6.50;6.50;;;;;20.94;38.84;101876.03;5017292;28;45883;-51
2021/10/24 01:35:05;;;;;;;;;6.75;6.25;;;;;20.95;38.73;101868.97;5017249;28;45261;-62
2021/10/24 01:37:36;;;;;;;;;9.50;7.50;;;;;20.96;39.00;101874.19;5017435;28;45666;-56
2021/10/24 01:40:07;;;;;;;;;7.75;6.25;;;;;20.95;38.96;101871.59;5017377;28;46721;-54
2021/10/24 01:42:33;;;;;;;;;9.50;8.00;;;;;20.95;39.06;101869.84;5015715;28;45879;-60
2021/10/24 01:44:58;;;;;;;;;6.50;6.50;;;;;20.93;38.76;101861.13;5017118;28;45272;-62
2021/10/24 01:47:24;;;;;;;;;6.75;6.75;;;;;20.92;38.89;101853.31;5017203;28;45630;-58
2021/10/24 01:49:49;;;;;;;;;6.00;6.00;;;;;20.92;39.21;101858.56;5017296;28;45375;-59
2021/10/24 01:52:16;;;;;;;;;7.25;7.00;;;;;20.92;38.89;101848.88;5016835;28;45310;-63
2021/10/24 01:54:42;;;;;;;;;8.00;6.25;;;;;20.89;38.78;101841.09;5016952;28;45265;-63
2021/10/24 01:57:07;;;;;;;;;8.25;6.75;;;;;20.92;38.63;101840.13;5017139;28;45354;-62
2021/10/24 01:59:32;;;;;;;;;6.00;6.00;;;;;20.91;38.66;101835.78;5016781;28;45441;-63
2021/10/24 02:01:58;;;;;;;;;8.25;7.25;;;;;20.92;38.71;101837.50;5048437;28;45364;-63
2021/10/24 02:04:23;;;;;;;;;6.75;6.25;;;;;20.91;38.86;101827.88;5016750;28;45470;-62
2021/10/24 02:06:48;;;;;;;;;6.75;6.00;;;;;20.91;38.54;101819.97;5017267;28;45516;-63
2021/10/24 02:09:14;;;;;;;;;6.75;6.75;;;;;20.91;38.64;101828.72;5016568;28;45717;-63
2021/10/24 02:11:39;;;;;;;;;7.25;7.25;;;;;20.89;38.94;101816.53;5016660;28;45418;-63
2021/10/24 02:14:05;;;;;;;;;9.00;8.00;;;;;20.91;39.06;101809.44;5016572;28;45319;-63
2021/10/24 02:16:30;;;;;;;;;8.75;7.00;;;;;20.89;38.60;101812.09;5016981;28;45569;-63
2021/10/24 02:18:55;;;;;;;;;6.00;5.00;;;;;20.90;39.10;101799.81;5048583;28;46081;-56
2021/10/24 02:21:21;;;;;;;;;7.00;6.00;;;;;20.88;38.99;101799.88;5016684;28;45272;-58
2021/10/24 02:23:46;;;;;;;;;6.50;6.00;;;;;20.87;38.78;101798.16;5015595;28;45410;-63
2021/10/24 02:26:11;;;;;;;;;5.00;5.00;;;;;20.88;38.59;101794.59;5016616;28;45638;-55
2021/10/24 02:28:37;;;;;;;;;6.00;6.00;;;;;20.88;38.57;101794.59;5016357;28;46242;-60
2021/10/24 02:31:02;;;;;;;;;8.50;5.00;;;;;20.87;39.02;101792.00;5016509;28;45407;-59
2021/10/24 02:33:27;;;;;;;;;5.50;5.50;;;;;20.87;38.71;101787.63;5016467;28;45388;-63
2021/10/24 02:35:53;;;;;;;;;7.00;6.50;;;;;20.88;39.18;101791.09;5016992;28;45719;-59
2021/10/24 02:38:20;;;;;;;;;8.00;6.75;;;;;20.86;38.62;101780.63;5016200;28;46269;-63
2021/10/24 02:40:45;;;;;;;;;7.00;7.00;;;;;20.85;38.73;101779.75;5016462;28;45300;-63
2021/10/24 02:43:10;;;;;;;;;7.50;6.50;;;;;20.86;39.13;101780.63;5016338;28;45184;-60
2021/10/24 02:45:36;;;;;;;;;6.00;6.00;;;;;20.87;38.62;101786.75;5016414;28;45775;-60
2021/10/24 02:48:06;;;;;;;;;6.50;6.00;;;;;20.86;38.58;101785.91;5015956;28;46525;-56
2021/10/24 02:50:31;;;;;;;;;5.50;5.50;;;;;20.85;39.00;101777.13;5016001;28;45316;-59
2021/10/24 02:52:56;;;;;;;;;6.50;4.50;;;;;20.85;38.98;101779.75;5016247;28;45308;-64
2021/10/24 02:55:22;;;;;;;;;6.00;6.00;;;;;20.84;38.82;101774.56;5016771;28;45387;-63
2021/10/24 02:57:47;;;;;;;;;7.00;7.00;;;;;20.85;38.99;101773.66;5016050;28;45268;-63
2021/10/24 03:00:14;;;;;;;;;8.25;5.00;;;;;20.85;38.74;101773.66;5015926;28;45150;-63
2021/10/24 03:02:40;;;;;;;;;6.50;6.50;;;;;20.84;38.79;101767.50;5014831;28;45812;-61
2021/10/24 03:05:07;;;;;;;;;8.25;7.00;;;;;20.85;38.50;101763.09;5016160;28;45716;-62
2021/10/24 03:07:33;;;;;;;;;5.00;5.00;;;;;20.84;39.05;101756.13;5015854;28;46676;-59
2021/10/24 03:09:59;;;;;;;;;3.00;1.00;;;;;20.84;39.07;101756.97;5016042;28;45963;-62
2021/10/24 03:12:24;;;;;;;;;7.75;6.25;;;;;20.83;38.61;101757.91;5016196;28;45312;-54
2021/10/24 03:14:49;;;;;;;;;5.00;4.00;;;;;20.82;38.79;101758.84;5016277;28;45432;-59
2021/10/24 03:17:15;;;;;;;;;4.50;4.50;;;;;20.81;38.94;101762.38;5015762;28;46544;-62
2021/10/24 03:19:41;;;;;;;;;6.00;6.00;;;;;20.80;38.61;101758.03;5015626;28;45343;-64
2021/10/24 03:22:07;;;;;;;;;5.00;5.00;;;;;20.81;38.55;101753.59;5016095;28;45430;-63
2021/10/24 03:24:32;;;;;;;;;6.50;5.75;;;;;20.82;38.67;101757.97;5015866;28;45440;-47
2021/10/24 03:26:59;;;;;;;;;5.00;5.00;;;;;20.80;39.01;101760.66;5015670;28;45621;-46
2021/10/24 03:29:24;;;;;;;;;6.25;4.25;;;;;20.80;38.82;101757.16;5015978;28;45354;-60
2021/10/24 03:31:49;;;;;;;;;4.25;4.25;;;;;20.81;38.44;101759.75;5015716;28;45213;-54
2021/10/24 03:34:15;;;;;;;;;7.75;5.75;;;;;20.79;38.48;101752.81;5015806;28;45662;-59
2021/10/24 03:36:40;;;;;;;;;6.00;6.00;;;;;20.80;38.72;101754.53;5018802;28;46244;-61
2021/10/24 03:39:06;;;;;;;;;4.00;4.00;;;;;20.80;38.84;101765.06;5019038;28;45269;-63
2021/10/24 03:41:31;;;;;;;;;5.75;5.00;;;;;20.81;38.87;101761.50;5019145;28;45594;-58
2021/10/24 03:43:56;;;;;;;;;4.00;4.00;;;;;20.79;38.44;101763.34;5019557;28;45483;-62
2021/10/24 03:46:22;;;;;;;;;5.50;5.50;;;;;20.79;38.83;101763.34;5017650;28;47120;-62
2021/10/24 03:48:47;;;;;;;;;6.00;5.25;;;;;20.79;38.78;101763.34;5050858;28;45778;-61
2021/10/24 03:51:13;;;;;;;;;6.00;5.25;;;;;20.80;38.57;101767.69;5018981;28;45425;-54
2021/10/24 03:53:38;;;;;;;;;5.25;5.25;;;;;20.78;38.31;101772.19;5019078;28;45570;-58
2021/10/24 03:56:03;;;;;;;;;5.75;5.75;;;;;20.79;38.78;101771.25;5018786;28;45458;-52
2021/10/24 03:58:29;;;;;;;;;5.00;4.75;;;;;20.78;38.52;101772.19;5018578;28;45474;-45
2021/10/24 04:00:54;;;;;;;;;6.50;5.00;;;;;20.76;38.51;101764.34;5019065;28;45422;-48
2021/10/24 04:03:20;;;;;;;;;4.75;4.25;;;;;20.75;38.67;101769.69;5018852;28;45341;-58
2021/10/24 04:05:49;;;;;;;;;6.25;4.00;;;;;20.77;39.09;101783.66;5018506;28;45375;-62
2021/10/24 04:08:17;;;;;;;;;4.50;4.25;;;;;20.78;38.76;101782.75;5018740;28;45265;-61
2021/10/24 04:10:43;;;;;;;;;1.25;1.00;;;;;20.76;38.92;101785.41;5018698;28;45369;-52
2021/10/24 04:13:08;;;;;;;;;4.25;4.25;;;;;20.77;38.51;101788.94;5019016;28;45809;-59
2021/10/24 04:15:34;;;;;;;;;4.25;4.00;;;;;20.75;38.77;101782.84;5018615;28;45810;-60
2021/10/24 04:17:59;;;;;;;;;5.50;4.50;;;;;20.75;38.74;101788.97;5018374;28;45431;-48
2021/10/24 04:20:24;;;;;;;;;5.25;4.25;;;;;20.75;38.51;101788.13;5018856;28;45390;-55
2021/10/24 04:22:51;;;;;;;;;5.25;5.25;;;;;20.75;38.68;101791.59;5018682;28;45366;-60
2021/10/24 04:25:16;;;;;;;;;6.50;5.00;;;;;20.76;38.89;101789.84;5016713;28;46555;-50
2021/10/24 04:27:43;;;;;;;;;5.00;5.00;;;;;20.77;38.87;101791.56;5018308;28;45376;-62
2021/10/24 04:30:10;;;;;;;;;4.75;4.75;;;;;20.75;38.66;101788.13;5018239;28;45415;-58
2021/10/24 04:32:37;;;;;;;;;6.50;5.50;;;;;20.74;38.73;101789.00;5017249;28;45341;-57
2021/10/24 04:35:05;;;;;;;;;6.00;6.00;;;;;20.74;38.52;101784.63;5016728;28;46279;-60
2021/10/24 04:37:30;;;;;;;;;5.00;5.00;;;;;20.73;38.88;101785.50;5018170;28;45524;-47
2021/10/24 04:39:56;;;;;;;;;4.00;4.00;;;;;20.74;38.93;101786.38;5018529;28;45348;-57
2021/10/24 04:42:21;;;;;;;;;6.00;6.00;;;;;20.73;38.44;101785.50;5018346;28;45421;-58
2021/10/24 04:44:46;;;;;;;;;4.00;4.00;;;;;20.72;38.39;101775.03;5017810;28;45391;-58
2021/10/24 04:47:12;;;;;;;;;5.50;5.50;;;;;20.71;38.62;101776.84;5016954;28;45285;-58
2021/10/24 04:49:37;;;;;;;;;6.25;5.50;;;;;20.73;38.89;101777.59;5018036;28;45265;-62
2021/10/24 04:52:03;;;;;;;;;5.00;5.00;;;;;20.72;38.43;101775.91;5018368;28;45626;-62
2021/10/24 04:54:28;;;;;;;;;5.50;5.50;;;;;20.72;38.81;101775.91;5018019;28;46304;-62
2021/10/24 04:56:55;;;;;;;;;6.75;5.75;;;;;20.72;38.96;101772.41;5017900;28;45281;-57
2021/10/24 04:59:20;;;;;;;;;5.25;5.25;;;;;20.72;38.81;101768.00;5018011;28;45364;-59
2021/10/24 05:01:47;;;;;;;;;6.00;5.00;;;;;20.72;38.85;101772.41;5018041;28;45204;-51
2021/10/24 05:04:13;;;;;;;;;4.00;4.00;;;;;20.71;38.71;101768.94;5017281;28;45411;-58
2021/10/24 05:06:38;;;;;;;;;6.00;6.00;;;;;20.70;38.52;101768.06;5017497;28;45410;-51
2021/10/24 05:09:04;;;;;;;;;7.00;6.75;;;;;20.69;38.53;101768.97;5017749;28;45435;-46
2021/10/24 05:11:30;;;;;;;;;6.25;5.75;;;;;20.70;38.73;101768.06;5018218;28;45385;-46
2021/10/24 05:13:56;;;;;;;;;8.25;6.75;;;;;20.71;38.65;101768.94;5017480;28;46260;-48
2021/10/24 05:16:21;;;;;;;;;6.75;5.50;;;;;20.68;38.82;101756.72;5017501;28;45690;-63
2021/10/24 05:18:47;;;;;;;;;4.50;4.50;;;;;20.69;38.79;101755.81;5017667;28;45404;-58
2021/10/24 05:21:12;;;;;;;;;5.50;5.50;;;;;20.67;39.07;101755.00;5017782;28;45297;-56
2021/10/24 05:23:37;;;;;;;;;4.50;4.00;;;;;20.69;38.73;101753.16;5017351;28;45468;-59
2021/10/24 05:26:04;;;;;;;;;6.00;5.50;;;;;20.69;38.48;101753.16;4999610;28;45244;-58
2021/10/24 05:28:31;;;;;;;;;5.50;5.50;;;;;20.69;38.70;101752.31;5017778;28;45293;-60
2021/10/24 05:30:56;;;;;;;;;5.00;5.00;;;;;20.68;38.97;101750.59;5017726;28;45233;-53
2021/10/24 05:33:22;;;;;;;;;6.00;5.00;;;;;20.69;38.37;101757.59;5017481;28;46303;-52
2021/10/24 05:35:49;;;;;;;;;5.75;5.50;;;;;20.68;38.61;101754.09;5017142;28;45444;-59
2021/10/24 05:38:15;;;;;;;;;5.00;4.25;;;;;20.68;38.63;101758.50;5017372;28;45257;-54
2021/10/24 05:40:40;;;;;;;;;6.00;5.25;;;;;20.66;38.97;101750.69;5017506;28;45594;-55
2021/10/24 05:43:05;;;;;;;;;5.25;5.25;;;;;20.67;38.63;101755.00;5017134;28;45371;-56
2021/10/24 05:45:31;;;;;;;;;4.25;4.00;;;;;20.67;38.87;101752.38;5017125;28;45336;-63
2021/10/24 05:47:56;;;;;;;;;4.75;4.00;;;;;20.66;38.77;101750.69;5017197;28;45404;-62
2021/10/24 05:50:21;;;;;;;;;4.75;4.50;;;;;20.66;38.35;101745.41;5017307;28;45596;-62
2021/10/24 05:52:47;;;;;;;;;5.00;5.00;;;;;20.67;38.85;101743.63;5016689;28;45527;-54
2021/10/24 05:55:12;;;;;;;;;4.75;4.50;;;;;20.65;38.63;101738.44;5015802;28;45380;-50
2021/10/24 05:57:37;;;;;;;;;4.50;4.50;;;;;20.64;38.35;101744.63;5016756;28;45227;-57
2021/10/24 06:00:04;;;;;;;;;4.00;4.00;;;;;20.65;39.03;101741.06;5017382;28;45587;-47
2021/10/24 06:02:29;;;;;;;;;4.25;4.25;;;;;20.65;38.66;101743.69;5016936;28;46152;-60
2021/10/24 06:04:57;;;;;;;;;5.25;4.50;;;;;20.64;38.19;101734.06;5048133;28;45254;-57
2021/10/24 06:07:24;;;;;;;;;4.50;4.50;;;;;20.64;38.24;101736.72;5016877;28;45473;-62
2021/10/24 06:09:52;;;;;;;;;6.25;4.75;;;;;20.63;38.65;101739.38;5017078;28;45482;-62
2021/10/24 06:15:06;;;;;;;;;2.00;2.00;;;;;20.64;38.36;101743.75;5016544;28;45883;-48
2021/10/24 06:17:32;;;;;;;;;4.25;3.50;;;;;20.63;38.73;101742.03;5017167;28;45431;-58
2021/10/24 06:19:58;;;;;;;;;4.00;4.00;;;;;20.61;38.40;101738.63;5016873;28;45599;-62
2021/10/24 06:22:24;;;;;;;;;4.00;4.00;;;;;20.60;38.63;101743.00;5016488;28;46499;-56
2021/10/24 06:24:49;;;;;;;;;4.50;4.00;;;;;20.59;38.95;101727.28;5016311;28;45320;-62
2021/10/24 06:27:15;;;;;;;;;5.75;4.75;;;;;20.60;38.47;101732.47;5015126;28;45436;-60
2021/10/24 06:29:40;;;;;;;;;6.00;6.00;;;;;20.59;38.67;101733.41;5016734;28;45497;-58
2021/10/24 06:32:06;;;;;;;;;5.25;5.25;;;;;20.59;38.49;101735.19;5016746;28;45325;-59
2021/10/24 06:34:32;;;;;;;;;8.00;5.00;;;;;20.57;38.67;101727.34;5016576;28;45315;-62
2021/10/24 06:36:57;;;;;;;;;6.50;6.50;;;;;20.56;38.51;101728.25;5016553;28;45344;-59
2021/10/24 06:39:23;;;;;;;;;6.00;6.00;;;;;20.54;38.37;101730.13;5015369;28;45583;-58
2021/10/24 06:41:48;;;;;;;;;4.00;4.00;;;;;20.51;38.08;101722.34;5016115;28;45341;-60
2021/10/24 06:44:14;;;;;;;;;5.00;5.00;;;;;20.52;38.24;101724.03;5016234;28;45351;-53
2021/10/24 06:46:39;;;;;;;;;2.00;2.00;;;;;20.50;38.17;101723.25;5016399;28;45333;-55
2021/10/24 06:49:05;;;;;;;;;7.75;4.00;;;;;20.50;38.42;101731.16;5016638;28;45202;-58
2021/10/24 06:51:30;;;;;;;;;4.00;4.00;;;;;20.50;38.27;101724.13;5016163;28;46194;-59
2021/10/24 06:53:56;;;;;;;;;5.00;4.25;;;;;20.50;38.86;101729.38;5016197;28;45339;-56
2021/10/24 06:56:21;;;;;;;;;4.75;4.75;;;;;20.49;38.86;101724.16;5015045;28;45237;-57
2021/10/24 06:58:47;;;;;;;;;5.00;5.00;;;;;20.50;38.93;101724.13;5016335;28;45506;-60
2021/10/24 07:01:12;;;;;;;;;4.00;4.00;;;;;20.50;38.47;101721.50;5016133;28;45671;-45
2021/10/24 07:03:37;;;;;;;;;3.25;2.00;;;;;20.49;38.56;101719.78;5015955;28;45387;-53
2021/10/24 07:06:03;;;;;;;;;3.00;3.00;;;;;20.51;38.08;101719.69;5016375;28;45539;-54
2021/10/24 07:08:28;;;;;;;;;5.75;5.75;;;;;20.49;38.18;101716.25;5016467;28;45527;-58
2021/10/24 07:10:53;;;;;;;;;4.00;4.00;;;;;20.50;38.73;101723.25;5017881;28;46322;-61
2021/10/24 07:13:19;;;;;;;;;5.50;5.50;;;;;20.50;38.26;101717.97;5019451;28;45289;-57
2021/10/24 07:15:44;;;;;;;;;4.25;4.25;;;;;20.49;38.58;101725.03;5018312;28;45409;-61
2021/10/24 07:18:10;;;;;;;;;4.25;4.25;;;;;20.48;38.17;101722.44;5019743;28;45537;-58
2021/10/24 07:20:35;;;;;;;;;6.75;5.00;;;;;20.48;38.76;101720.69;5019547;28;45444;-59
2021/10/24 07:23:01;;;;;;;;;4.50;4.00;;;;;20.48;38.61;101723.31;5019368;28;45377;-62
2021/10/24 07:25:27;;;;;;;;;7.00;4.50;;;;;20.48;38.19;101722.44;5019359;28;45432;-61
2021/10/24 07:27:53;;;;;;;;;3.50;3.50;;;;;20.49;38.44;101734.69;5019729;28;45427;-57
2021/10/24 07:30:19;;;;;;;;;4.75;4.75;;;;;20.46;38.71;101722.53;5019324;28;46233;-60
2021/10/24 07:32:45;;;;;;;;;5.50;5.50;;;;;20.45;38.43;101723.44;5017861;28;45279;-61
2021/10/24 07:35:11;;;;;;;;;5.00;4.00;;;;;20.45;38.38;101719.97;5019513;28;45238;-60
2021/10/24 07:37:38;;;;;;;;;5.25;5.25;;;;;20.44;38.67;101715.63;5019884;28;45542;-58
2021/10/24 07:40:05;;;;;;;;;4.50;4.50;;;;;20.45;38.65;101717.34;5019011;28;45670;-61
2021/10/24 07:42:30;;;;;;;;;5.00;4.00;;;;;20.44;38.25;101720.88;5019065;28;45788;-60
2021/10/24 07:44:57;;;;;;;;;4.00;4.00;;;;;20.44;38.39;101716.47;5018972;28;45320;-61
2021/10/24 07:47:22;;;;;;;;;4.00;4.00;;;;;20.45;38.26;101714.69;5019310;28;45397;-60
2021/10/24 07:49:48;;;;;;;;;4.50;4.50;;;;;20.45;38.20;101706.78;5018925;28;47172;-60
2021/10/24 07:52:14;;;;;;;;;5.00;5.00;;;;;20.44;38.38;101707.72;5018698;28;45321;-60
2021/10/24 07:54:39;;;;;;;;;4.00;4.00;;;;;20.44;38.26;101703.28;5018954;28;45308;-59
2021/10/24 07:57:05;;;;;;;;;4.00;4.00;;;;;20.43;38.56;101700.72;5019326;28;45340;-56
2021/10/24 07:59:30;;;;;;;;;4.00;4.00;;;;;20.44;38.28;101700.66;5018673;28;46169;-57
2021/10/24 08:01:56;;;;;;;;;3.00;3.00;;;;;20.43;38.42;101700.72;5018719;28;45189;-58
2021/10/24 08:04:22;;;;;;;;;5.50;4.00;;;;;20.43;38.30;101698.09;5018778;28;45450;-53
2021/10/24 08:06:47;;;;;;;;;5.50;5.50;;;;;20.42;38.02;101696.38;5018879;28;45585;-48
2021/10/24 08:09:13;;;;;;;;;6.00;5.00;;;;;20.42;38.23;101702.50;5018422;28;46250;-58
2021/10/24 08:11:39;;;;;;;;;5.75;4.00;;;;;20.43;38.26;101704.22;5018813;28;45492;-50
2021/10/24 08:14:07;;;;;;;;;4.00;3.00;;;;;20.42;38.35;101699.00;5017680;28;46626;-52
2021/10/24 08:16:35;;;;;;;;;5.25;5.25;;;;;20.42;38.36;101701.66;5018872;28;45605;-48
2021/10/24 08:19:00;;;;;;;;;4.25;4.25;;;;;20.41;37.80;101694.66;5018446;28;46587;-52
2021/10/24 08:21:26;;;;;;;;;6.00;6.00;;;;;20.42;38.42;101699.00;5016933;28;45187;-49
2021/10/24 08:23:52;;;;;;;;;5.00;5.00;;;;;20.42;38.10;101699.84;5017144;28;45281;-47
2021/10/24 08:26:17;;;;;;;;;5.25;4.75;;;;;20.42;38.42;101699.00;5018644;28;45533;-46
2021/10/24 08:28:47;;;;;;;;;7.50;5.00;;;;;20.42;38.14;101706.91;5018275;28;46440;-54
2021/10/24 08:31:16;;;;;;;;;5.00;4.25;;;;;20.43;37.89;101709.47;5018472;28;45284;-54
2021/10/24 08:33:42;;;;;;;;;6.25;4.50;;;;;20.41;38.21;101706.03;5018650;28;45257;-49
2021/10/24 08:36:07;;;;;;;;;5.50;4.00;;;;;20.39;38.00;101714.00;5018830;28;45174;-61
2021/10/24 08:38:32;;;;;;;;;4.75;4.75;;;;;20.42;38.35;101715.66;5018090;28;45688;-59
2021/10/24 08:41:00;;;;;;;;;4.25;4.25;;;;;20.42;38.07;101707.75;5018099;28;45429;-61
2021/10/24 08:43:29;;;;;;;;;1.25;1.00;;;;;20.41;37.96;101706.03;5018228;28;45404;-60
2021/10/24 08:45:55;;;;;;;;;5.50;4.00;;;;;20.43;38.48;101709.47;5018270;28;45190;-61
2021/10/24 08:48:20;;;;;;;;;4.75;4.75;;;;;20.37;38.46;101697.41;5017898;28;45495;-57
2021/10/24 08:50:46;;;;;;;;;4.75;4.00;;;;;20.41;37.92;101699.94;5017862;28;45356;-53
2021/10/24 08:53:13;;;;;;;;;6.50;4.00;;;;;20.43;38.54;101698.09;5018448;28;45327;-47
2021/10/24 08:55:41;;;;;;;;;6.00;4.25;;;;;20.50;38.51;101713.59;5017240;28;45294;-46
2021/10/24 08:58:07;;;;;;;;;5.00;5.00;;;;;20.49;37.94;101703.97;5017760;28;45553;-52
2021/10/24 09:00:32;;;;;;;;;6.00;6.00;;;;;20.52;38.52;101710.88;5017908;28;45698;-53
2021/10/24 09:03:00;;;;;;;;;6.25;5.75;;;;;20.51;38.49;101702.09;5017867;28;45948;-52
2021/10/24 09:05:36;;;;;;;;;7.75;5.00;;;;;20.51;38.48;101701.25;5018014;28;45385;-52
2021/10/24 09:08:03;;;;;;;;;6.75;5.00;;;;;20.52;38.42;101689.81;5017775;28;45290;-54
2021/10/24 09:10:54;;;;;;;;;5.00;3.75;;;;;20.51;37.99;101685.47;5016380;28;46076;-60
2021/10/24 09:13:24;;;;;;;;;5.25;5.25;;;;;20.51;38.39;101681.03;5017900;28;45344;-59
2021/10/24 09:15:54;;;;;;;;;6.50;5.00;;;;;20.51;38.55;101677.56;5017801;28;45559;-53
2021/10/24 09:18:31;;;;;;;;;5.00;5.00;;;;;20.51;38.05;101672.28;5016244;28;48147;-51
2021/10/24 09:20:56;;;;;;;;;4.00;4.00;;;;;20.52;38.41;101671.38;5017365;28;46012;-48
2021/10/24 09:23:22;;;;;;;;;5.50;4.50;;;;;20.51;38.23;101672.28;5017702;28;45353;-55
2021/10/24 09:25:49;;;;;;;;;5.00;4.25;;;;;20.52;38.62;101671.38;5017682;28;45567;-52
2021/10/24 09:28:17;;;;;;;;;4.75;3.25;;;;;20.53;38.87;101667.81;5015956;28;47173;-46
2021/10/24 09:30:43;;;;;;;;;5.50;5.00;;;;;20.48;38.60;101649.59;5016366;28;46156;-47
2021/10/24 09:33:12;;;;;;;;;7.00;5.00;;;;;20.50;38.38;101646.88;5017036;28;45280;-58
2021/10/24 09:35:43;;;;;;;;;4.00;4.00;;;;;20.52;38.26;101650.31;5017394;28;45652;-51
2021/10/24 09:38:21;;;;;;;;;5.75;5.75;;;;;20.51;38.21;101653.84;5017231;28;46812;-48
2021/10/24 09:40:54;;;;;;;;;6.00;5.00;;;;;20.53;38.41;101659.94;5017119;28;45392;-54
2021/10/24 09:43:28;;;;;;;;;4.75;4.00;;;;;20.52;38.35;101664.31;5017099;28;45767;-44
2021/10/24 09:45:56;;;;;;;;;5.00;4.00;;;;;20.54;38.17;101666.91;5017375;28;45238;-43
2021/10/24 09:48:23;;;;;;;;;8.00;5.00;;;;;20.54;38.38;101675.66;5016849;28;46233;-61
2021/10/24 09:50:55;;;;;;;;;4.75;4.75;;;;;20.53;38.78;101675.72;5016948;28;45879;-61
2021/10/24 09:53:26;;;;;;;;;5.50;3.75;;;;;20.53;38.44;101676.56;5016251;28;45522;-47
2021/10/24 09:55:57;;;;;;;;;4.75;4.75;;;;;20.53;38.34;101676.56;5017165;28;45447;-46
2021/10/24 09:58:27;;;;;;;;;5.00;4.00;;;;;20.54;38.55;101674.81;5017028;28;45392;-44
2021/10/24 10:00:52;;;;;;;;;4.75;4.75;;;;;20.52;38.75;101666.13;5017021;28;45791;-45
2021/10/24 10:03:19;;;;;;;;;4.25;4.25;;;;;20.54;38.24;101664.28;5016929;28;45518;-48
2021/10/24 10:05:45;;;;;;;;;5.00;5.00;;;;;20.54;38.27;101665.13;5017122;28;45394;-46
2021/10/24 10:08:12;;;;;;;;;5.00;4.50;;;;;20.55;38.40;101663.34;5016746;28;45313;-48
2021/10/24 10:10:41;;;;;;;;;4.25;4.00;;;;;20.54;38.49;101665.13;5016744;28;45264;-57
2021/10/24 10:13:11;;;;;;;;;6.75;5.00;;;;;20.57;38.84;101665.91;5016921;28;45265;-61
2021/10/24 10:15:42;;;;;;;;;4.75;4.75;;;;;20.54;38.87;101654.59;5017017;28;45695;-61
2021/10/24 10:18:08;;;;;;;;;6.25;5.00;;;;;20.54;38.90;101659.00;5016547;28;46069;-55
2021/10/24 10:20:42;;;;;;;;;4.25;4.25;;;;;20.54;38.30;101659.84;5016516;28;45208;-61
2021/10/24 10:23:10;;;;;;;;;4.00;4.00;;;;;20.53;38.41;101662.56;5016675;28;45264;-62
2021/10/24 10:25:37;;;;;;;;;7.75;5.50;;;;;20.54;38.35;101674.81;5016629;28;45251;-61
2021/10/24 10:28:05;;;;;;;;;5.00;5.00;;;;;20.52;38.71;101672.22;5015165;28;46348;-58
2021/10/24 10:30:44;;;;;;;;;6.75;5.25;;;;;20.53;38.58;101667.81;5016377;28;45955;-57
2021/10/24 10:33:35;;;;;;;;;5.00;5.00;;;;;20.53;38.61;101663.41;5016530;28;45320;-54
2021/10/24 10:36:03;;;;;;;;;6.75;6.25;;;;;20.55;38.84;101668.63;5016745;28;45525;-46
2021/10/24 10:38:42;;;;;;;;;7.25;5.25;;;;;20.52;38.68;101666.13;5016241;28;46251;-54
2021/10/24 10:41:12;;;;;;;;;7.50;5.75;;;;;20.52;38.67;101656.41;5016645;28;45831;-57
2021/10/24 10:43:38;;;;;;;;;6.75;5.00;;;;;20.52;38.67;101659.06;5016728;28;45269;-63
2021/10/24 10:46:06;;;;;;;;;5.00;5.00;;;;;20.54;38.77;101666.91;5015671;28;45404;-61
2021/10/24 10:48:44;;;;;;;;;5.50;5.00;;;;;20.54;38.84;101664.28;5016117;28;46478;-57
2021/10/24 10:51:25;;;;;;;;;5.25;5.25;;;;;20.54;38.96;101674.81;5016260;28;45426;-61
2021/10/24 10:53:53;;;;;;;;;5.00;4.00;;;;;20.52;39.05;101666.13;5015241;28;45377;-57
2021/10/24 10:56:20;;;;;;;;;6.00;6.00;;;;;20.52;38.48;101676.66;5016455;28;45547;-58
2021/10/24 10:58:49;;;;;;;;;3.00;3.00;;;;;20.54;38.84;101680.06;5016337;28;46590;-61
2021/10/24 11:01:39;;;;;;;;;7.00;5.75;;;;;20.53;38.67;101678.34;5016389;28;45258;-61
2021/10/24 11:04:07;;;;;;;;;8.00;6.50;;;;;20.54;38.76;101669.53;5015967;28;45551;-61
2021/10/24 11:06:39;;;;;;;;;4.00;4.00;;;;;20.53;38.95;101666.03;5015133;28;45263;-51
2021/10/24 11:09:07;;;;;;;;;6.00;4.75;;;;;20.53;38.96;101658.13;5015830;28;45442;-62
2021/10/24 11:11:41;;;;;;;;;7.00;6.00;;;;;20.54;38.67;101670.38;5015700;28;45826;-58
2021/10/24 11:14:18;;;;;;;;;3.25;3.25;;;;;20.55;38.67;101666.00;5015942;28;45408;-60
2021/10/24 11:16:50;;;;;;;;;5.00;4.00;;;;;20.55;38.89;101666.00;5016224;28;45650;-58
2021/10/24 11:19:37;;;;;;;;;11.25;11.00;;;;;20.52;37.95;101666.94;5016113;28;46347;-62
2021/10/24 11:22:06;;;;;;;;;10.50;9.50;;;;;20.45;36.98;101664.66;5015634;28;45946;-58
2021/10/24 11:24:44;;;;;;;;;9.00;9.00;;;;;20.30;36.83;101669.63;5014453;28;45465;-62